Time;durP1;ratioP1;P1;durP2;ratioP2;P2;SDS_P1;SDS_P2;PMS_P1;PMS_P2;Temp;Humidity;BMP_temperature;BMP_pressure;BME280_temperature;BME280_humidity;BME280_pressure;Samples;Min_cycle;Max_cycle;Signal;HPM_P1;HPM_P2
2021/01/03 00:02:16;;;;;;;25.92;10.80;;;5.40;86.60;;;;;;4968651;28;20023;-87
2021/01/03 00:04:43;;;;;;;25.58;11.63;;;5.20;86.70;;;;;;4967551;28;20027;-87
2021/01/03 00:07:11;;;;;;;33.03;13.70;;;5.10;86.70;;;;;;4973702;28;20110;-86
2021/01/03 00:09:36;;;;;;;20.52;9.40;;;5.00;86.80;;;;;;4970128;28;20050;-87
2021/01/03 00:12:02;;;;;;;24.88;10.63;;;5.10;87.10;;;;;;4969927;28;20049;-86
2021/01/03 00:14:30;;;;;;;17.25;8.00;;;5.10;87.10;;;;;;4969144;28;20381;-86
2021/01/03 00:17:06;;;;;;;24.63;10.98;;;5.20;87.10;;;;;;4963122;28;20050;-87
2021/01/03 00:19:32;;;;;;;32.47;13.75;;;5.20;86.90;;;;;;4971336;28;20393;-87
2021/01/03 00:21:58;;;;;;;23.13;10.35;;;5.10;86.70;;;;;;4968922;28;20027;-87
2021/01/03 00:24:23;;;;;;;30.85;12.77;;;5.00;86.90;;;;;;4966737;28;20016;-87
2021/01/03 00:26:49;;;;;;;24.70;11.20;;;4.90;87.10;;;;;;4968823;28;20701;-87
2021/01/03 00:29:18;;;;;;;18.30;9.25;;;4.90;87.20;;;;;;4992043;28;20046;-86
2021/01/03 00:31:49;;;;;;;24.23;11.25;;;5.00;87.30;;;;;;4968831;28;20034;-87
2021/01/03 00:34:16;;;;;;;33.58;15.30;;;5.00;87.30;;;;;;4968920;28;20026;-88
2021/01/03 00:36:42;;;;;;;23.42;11.13;;;5.00;87.20;;;;;;4969494;28;20684;-88
2021/01/03 00:39:08;;;;;;;46.03;20.80;;;5.10;87.40;;;;;;4961869;28;20027;-87
2021/01/03 00:41:34;;;;;;;24.77;11.35;;;4.80;87.20;;;;;;4969126;28;20018;-87
2021/01/03 00:43:59;;;;;;;26.10;12.52;;;4.80;87.50;;;;;;4954878;28;20367;-88
2021/01/03 00:46:25;;;;;;;30.38;14.05;;;4.70;87.60;;;;;;4971614;28;20035;-87
2021/01/03 00:48:50;;;;;;;34.90;15.48;;;4.70;87.80;;;;;;4965361;28;20520;-87
2021/01/03 00:51:16;;;;;;;32.65;13.93;;;4.70;87.80;;;;;;4971825;28;20039;-88
2021/01/03 00:53:42;;;;;;;29.80;13.55;;;4.70;88.00;;;;;;4955090;28;20534;-87
2021/01/03 00:56:07;;;;;;;35.38;15.65;;;4.70;87.90;;;;;;4962833;28;20116;-87
2021/01/03 00:58:33;;;;;;;36.80;16.10;;;4.80;88.00;;;;;;4970136;28;20095;-87
2021/01/03 01:00:58;;;;;;;32.88;12.57;;;4.80;88.00;;;;;;4971783;28;20027;-88
2021/01/03 01:03:24;;;;;;;35.97;15.23;;;4.70;88.10;;;;;;4954159;28;20035;-87
2021/01/03 01:05:50;;;;;;;21.48;10.18;;;4.70;88.00;;;;;;4965419;28;20038;-87
2021/01/03 01:08:15;;;;;;;34.50;15.75;;;4.80;88.20;;;;;;4965433;28;20024;-87
2021/01/03 01:10:41;;;;;;;20.25;9.50;;;4.80;87.90;;;;;;4953652;28;20466;-87
2021/01/03 01:13:06;;;;;;;36.72;17.40;;;4.80;87.90;;;;;;4966158;28;20019;-87
2021/01/03 01:15:32;;;;;;;41.00;18.30;;;4.80;87.70;;;;;;4961510;28;20638;-87
2021/01/03 01:18:02;;;;;;;31.92;13.55;;;4.70;87.70;;;;;;4951383;28;20034;-87
2021/01/03 01:20:29;;;;;;;32.40;14.55;;;4.80;87.90;;;;;;4964509;28;20030;-87
2021/01/03 01:22:55;;;;;;;28.15;14.25;;;4.60;87.80;;;;;;4962627;28;20035;-87
2021/01/03 01:25:24;;;;;;;28.30;12.77;;;4.80;88.00;;;;;;4960339;28;20023;-87
2021/01/03 01:27:51;;;;;;;23.52;11.95;;;4.70;87.80;;;;;;4971554;28;20031;-87
2021/01/03 01:30:17;;;;;;;17.85;8.65;;;4.80;87.70;;;;;;4959410;28;20102;-87
2021/01/03 01:32:42;;;;;;;30.80;14.25;;;4.90;87.60;;;;;;4971662;28;20126;-87
2021/01/03 01:35:11;;;;;;;26.45;12.75;;;4.90;87.30;;;;;;4968065;28;20023;-87
2021/01/03 01:37:37;;;;;;;25.20;11.27;;;4.80;87.30;;;;;;4974282;28;20031;-87
2021/01/03 01:40:06;;;;;;;21.58;11.15;;;4.80;87.40;;;;;;4956040;28;20102;-87
2021/01/03 01:42:31;;;;;;;30.02;14.23;;;4.80;87.20;;;;;;4961718;28;20030;-84
2021/01/03 01:44:57;;;;;;;28.08;14.40;;;4.80;87.10;;;;;;4966893;28;20019;-84
2021/01/03 01:47:27;;;;;;;29.20;14.52;;;4.80;87.20;;;;;;4952600;28;20034;-86
2021/01/03 01:49:57;;;;;;;29.50;13.55;;;4.80;87.20;;;;;;4967802;28;20035;-84
2021/01/03 01:52:28;;;;;;;20.67;9.52;;;4.80;87.00;;;;;;4952098;28;20027;-85
2021/01/03 01:54:58;;;;;;;27.70;13.20;;;4.80;87.20;;;;;;4953973;28;20033;-86
2021/01/03 01:57:30;;;;;;;15.88;7.53;;;4.80;87.00;;;;;;4959912;28;20053;-86
2021/01/03 01:59:58;;;;;;;;;;;4.90;87.10;;;;;;4975562;28;20027;-86
2021/01/03 02:02:31;;;;;;;18.98;8.65;;;5.10;87.00;;;;;;4978174;28;19922;-86
2021/01/03 02:05:22;;;;;;;17.98;9.20;;;5.00;87.00;;;;;;4968958;28;20031;-84
2021/01/03 02:08:30;;;;;;;19.05;9.15;;;5.00;86.80;;;;;;4952551;28;20032;-84
2021/01/03 02:10:57;;;;;;;22.50;10.95;;;5.00;86.70;;;;;;4959039;28;20053;-85
2021/01/03 02:13:32;;;;;;;20.00;10.52;;;5.00;86.60;;;;;;4969763;28;20039;-85
2021/01/03 02:16:04;;;;;;;23.63;11.23;;;5.10;86.70;;;;;;4966510;28;20077;-85
2021/01/03 02:18:30;;;;;;;28.33;13.83;;;5.10;86.60;;;;;;4952695;28;20038;-85
2021/01/03 02:21:14;;;;;;;19.40;9.60;;;5.00;86.40;;;;;;4971163;28;20286;-85
2021/01/03 02:24:12;;;;;;;20.35;9.38;;;5.10;87.00;;;;;;4951237;28;20023;-84
2021/01/03 02:26:43;;;;;;;13.60;7.22;;;5.10;86.40;;;;;;4957368;28;20366;-84
2021/01/03 02:29:11;;;;;;;15.07;7.45;;;5.10;86.30;;;;;;4952806;28;20102;-85
2021/01/03 02:31:51;;;;;;;17.77;7.68;;;5.10;86.30;;;;;;4957333;28;20062;-87
2021/01/03 02:34:40;;;;;;;17.70;8.63;;;5.20;86.20;;;;;;4967029;28;20030;-85
2021/01/03 02:37:16;;;;;;;14.38;6.93;;;5.30;86.10;;;;;;4972626;28;20074;-86
2021/01/03 02:39:59;;;;;;;17.63;7.60;;;5.20;86.10;;;;;;4996473;28;20082;-86
2021/01/03 02:42:31;;;;;;;30.60;14.45;;;5.20;86.10;;;;;;4972353;28;20034;-86
2021/01/03 02:44:58;;;;;;;24.67;10.77;;;5.20;85.90;;;;;;4979921;28;20049;-86
2021/01/03 02:47:29;;;;;;;20.13;9.05;;;5.10;86.00;;;;;;4989004;28;20023;-86
2021/01/03 02:49:55;;;;;;;22.60;10.52;;;5.10;86.10;;;;;;4965287;28;20097;-85
2021/01/03 02:52:31;;;;;;;16.85;8.35;;;5.10;86.10;;;;;;4966809;28;20035;-86
2021/01/03 02:54:57;;;;;;;22.95;10.95;;;5.10;86.10;;;;;;4961715;28;20031;-86
2021/01/03 02:57:25;;;;;;;13.68;7.30;;;5.10;86.10;;;;;;4965902;28;20038;-86
2021/01/03 02:59:51;;;;;;;19.67;9.45;;;5.00;86.10;;;;;;4960778;28;20421;-86
2021/01/03 03:02:18;;;;;;;17.77;8.15;;;5.00;86.10;;;;;;4971849;28;20043;-86
2021/01/03 03:04:43;;;;;;;25.33;12.60;;;5.10;86.20;;;;;;4964363;28;20083;-86
2021/01/03 03:07:09;;;;;;;23.23;10.43;;;5.10;86.10;;;;;;4972258;28;20051;-86
2021/01/03 03:09:35;;;;;;;21.35;10.35;;;5.00;86.10;;;;;;4971720;28;20042;-86
2021/01/03 03:12:00;;;;;;;21.52;9.90;;;5.00;86.20;;;;;;4963642;28;20477;-86
2021/01/03 03:14:26;;;;;;;20.88;9.35;;;5.00;86.10;;;;;;4972914;28;20074;-86
2021/01/03 03:16:59;;;;;;;19.50;9.52;;;5.00;86.10;;;;;;4972531;28;20034;-86
2021/01/03 03:19:25;;;;;;;21.10;9.85;;;5.00;86.20;;;;;;4963142;28;20061;-86
2021/01/03 03:21:52;;;;;;;22.15;10.68;;;5.00;86.10;;;;;;4974350;28;20129;-87
2021/01/03 03:24:18;;;;;;;20.48;9.00;;;5.00;86.20;;;;;;4994333;28;20097;-86
2021/01/03 03:26:53;;;;;;;19.25;9.50;;;5.00;86.20;;;;;;4960126;28;20516;-87
2021/01/03 03:29:20;;;;;;;17.00;7.50;;;5.10;86.20;;;;;;4957664;28;20567;-86
2021/01/03 03:31:45;;;;;;;16.95;8.88;;;5.10;86.10;;;;;;4976977;28;20033;-86
2021/01/03 03:34:12;;;;;;;23.70;10.60;;;5.00;86.00;;;;;;4984117;28;20641;-86
2021/01/03 03:36:38;;;;;;;27.60;12.40;;;5.00;86.00;;;;;;4965329;28;20079;-85
2021/01/03 03:39:04;;;;;;;14.38;6.50;;;5.00;86.10;;;;;;4972550;28;20023;-85
2021/01/03 03:41:30;;;;;;;13.90;6.85;;;5.00;86.20;;;;;;4970893;28;20416;-86
2021/01/03 03:43:55;;;;;;;20.05;9.15;;;5.00;86.10;;;;;;4956561;28;20038;-85
2021/01/03 03:46:21;;;;;;;18.55;8.52;;;5.00;86.20;;;;;;4960037;28;20042;-84
2021/01/03 03:48:47;;;;;;;21.70;9.43;;;5.10;86.10;;;;;;4953130;28;20462;-85
2021/01/03 03:51:20;;;;;;;23.23;11.00;;;5.10;86.00;;;;;;4955027;28;20039;-85
2021/01/03 03:53:46;;;;;;;22.92;10.30;;;5.10;86.00;;;;;;4970944;28;20096;-85
2021/01/03 03:56:14;;;;;;;25.13;10.60;;;5.00;85.90;;;;;;4972105;28;20496;-85
2021/01/03 03:58:39;;;;;;;20.58;9.38;;;5.10;86.10;;;;;;4969349;28;20038;-85
2021/01/03 04:01:06;;;;;;;22.67;10.63;;;5.10;86.00;;;;;;4963264;28;20031;-85
2021/01/03 04:03:32;;;;;;;22.20;10.18;;;5.10;86.00;;;;;;4971512;28;20041;-85
2021/01/03 04:05:58;;;;;;;24.13;11.05;;;5.10;86.00;;;;;;4958355;28;20544;-85
2021/01/03 04:08:24;;;;;;;17.05;7.78;;;5.00;85.80;;;;;;4968801;28;20042;-85
2021/01/03 04:10:50;;;;;;;25.40;11.10;;;5.00;85.80;;;;;;4970850;28;20027;-85
2021/01/03 04:13:16;;;;;;;23.58;10.70;;;5.00;85.90;;;;;;4967988;28;20023;-85
2021/01/03 04:15:42;;;;;;;25.65;11.80;;;5.10;86.00;;;;;;4972377;28;20105;-85
2021/01/03 04:18:08;;;;;;;22.55;9.73;;;5.00;85.90;;;;;;4961737;28;20090;-85
2021/01/03 04:20:34;;;;;;;26.40;11.65;;;5.10;86.00;;;;;;4958051;28;20196;-83
2021/01/03 04:23:00;;;;;;;25.60;11.23;;;5.00;85.80;;;;;;4957191;28;20114;-86
2021/01/03 04:25:26;;;;;;;24.08;11.35;;;5.00;85.90;;;;;;4971709;28;20062;-84
2021/01/03 04:27:53;;;;;;;24.48;10.88;;;5.00;85.90;;;;;;4960278;28;20163;-84
2021/01/03 04:30:21;;;;;;;20.63;9.60;;;5.10;86.00;;;;;;4972396;28;20492;-84
2021/01/03 04:32:46;;;;;;;25.70;10.52;;;5.10;86.00;;;;;;4962655;28;20031;-84
2021/01/03 04:35:13;;;;;;;29.48;12.02;;;5.00;85.90;;;;;;4982905;28;20030;-85
2021/01/03 04:37:39;;;;;;;20.45;7.90;;;5.00;85.90;;;;;;4968632;28;20058;-84
2021/01/03 04:40:08;;;;;;;27.02;11.45;;;5.00;85.90;;;;;;4969478;28;20087;-84
2021/01/03 04:42:34;;;;;;;24.90;10.80;;;5.00;85.90;;;;;;4958822;28;20043;-84
2021/01/03 04:45:19;;;;;;;27.58;11.18;;;5.00;86.00;;;;;;4969507;28;20034;-85
2021/01/03 04:47:50;;;;;;;30.73;13.25;;;5.00;86.00;;;;;;4966515;28;20111;-84
2021/01/03 04:50:57;;;;;;;30.17;12.43;;;5.00;86.00;;;;;;4953423;28;20027;-84
2021/01/03 04:53:35;;;;;;;26.80;11.57;;;5.00;86.20;;;;;;4961637;28;20029;-85
2021/01/03 04:56:30;;;;;;;27.55;11.98;;;4.90;86.10;;;;;;4961153;28;20042;-85
2021/01/03 04:59:15;;;;;;;27.45;11.30;;;4.90;86.20;;;;;;4967845;28;20503;-85
2021/01/03 05:02:18;;;;;;;22.17;10.07;;;4.90;86.20;;;;;;4974294;28;20372;-86
2021/01/03 05:05:02;;;;;;;27.08;11.45;;;4.90;86.20;;;;;;4951945;28;20075;-85
2021/01/03 05:07:39;;;;;;;25.88;11.48;;;4.90;86.20;;;;;;4959271;28;20054;-85
2021/01/03 05:10:26;;;;;;;28.90;12.70;;;4.90;86.10;;;;;;4954336;28;20041;-85
2021/01/03 05:13:22;;;;;;;24.52;11.25;;;4.90;86.10;;;;;;4954660;28;20089;-84
2021/01/03 05:15:48;;;;;;;27.05;12.50;;;4.90;86.20;;;;;;4952577;28;20047;-85
2021/01/03 05:18:14;;;;;;;24.40;10.45;;;4.90;86.10;;;;;;4957202;28;20034;-85
2021/01/03 05:20:39;;;;;;;34.80;14.05;;;4.90;86.10;;;;;;4964785;28;20024;-86
2021/01/03 05:23:23;;;;;;;34.30;15.95;;;4.90;86.30;;;;;;4963253;28;20092;-86
2021/01/03 05:25:50;;;;;;;29.30;14.07;;;4.90;87.00;;;;;;4954984;28;20033;-86
2021/01/03 05:28:25;;;;;;;28.30;13.93;;;4.90;86.40;;;;;;4957425;28;20075;-85
2021/01/03 05:30:51;;;;;;;31.65;14.98;;;4.80;86.40;;;;;;4975462;28;20041;-86
2021/01/03 05:33:27;;;;;;;32.15;15.90;;;4.80;86.40;;;;;;4967990;28;20058;-86
2021/01/03 05:35:53;;;;;;;31.23;14.07;;;4.80;86.50;;;;;;4965775;28;20089;-86
2021/01/03 05:38:39;;;;;;;26.88;12.52;;;4.80;86.40;;;;;;4952178;28;20099;-86
2021/01/03 05:41:37;;;;;;;33.47;14.68;;;5.00;86.50;;;;;;4951313;28;20397;-84
2021/01/03 05:44:24;;;;;;;27.63;12.10;;;4.90;86.40;;;;;;4956896;28;20031;-85
2021/01/03 05:46:59;;;;;;;20.92;10.30;;;4.80;86.30;;;;;;4952262;28;20114;-85
2021/01/03 05:49:27;;;;;;;22.67;11.00;;;4.90;86.30;;;;;;4954449;28;20093;-85
2021/01/03 05:52:14;;;;;;;26.90;12.63;;;4.90;86.30;;;;;;4951997;28;20046;-85
2021/01/03 05:54:40;;;;;;;27.95;13.10;;;4.90;86.30;;;;;;4959979;28;20334;-85
2021/01/03 05:57:17;;;;;;;33.53;14.50;;;4.80;86.30;;;;;;4966114;28;20258;-85
2021/01/03 05:59:45;;;;;;;27.35;12.68;;;4.90;86.40;;;;;;4959738;28;20067;-85
2021/01/03 06:02:25;;;;;;;24.95;12.27;;;4.90;86.40;;;;;;4964199;28;20054;-85
2021/01/03 06:05:15;;;;;;;22.05;10.63;;;4.90;86.40;;;;;;4963046;28;20043;-85
2021/01/03 06:08:01;;;;;;;30.05;13.60;;;4.90;86.40;;;;;;4969564;28;20030;-84
2021/01/03 06:10:28;;;;;;;28.80;13.15;;;4.90;86.30;;;;;;4970397;28;20094;-84
2021/01/03 06:12:58;;;;;;;26.15;12.43;;;4.90;86.30;;;;;;4970264;28;20031;-85
2021/01/03 06:15:25;;;;;;;23.73;11.32;;;5.00;86.30;;;;;;4958829;28;20032;-85
2021/01/03 06:17:58;;;;;;;24.55;12.38;;;5.00;86.20;;;;;;4955045;28;20162;-84
2021/01/03 06:20:27;;;;;;;22.13;11.02;;;5.00;86.20;;;;;;4963895;28;20113;-84
2021/01/03 06:23:10;;;;;;;19.35;10.00;;;5.00;86.10;;;;;;4970289;28;20057;-85
2021/01/03 06:25:42;;;;;;;24.30;12.75;;;5.00;86.20;;;;;;4959163;28;20075;-83
2021/01/03 06:28:11;;;;;;;25.35;11.52;;;4.90;86.10;;;;;;4961013;28;20034;-83
2021/01/03 06:30:39;;;;;;;26.50;12.23;;;4.90;86.20;;;;;;4970619;28;20081;-84
2021/01/03 06:33:33;;;;;;;27.00;12.73;;;4.90;86.20;;;;;;4959865;28;20038;-84
2021/01/03 06:36:25;;;;;;;20.70;10.27;;;4.90;86.20;;;;;;4974193;28;20027;-83
2021/01/03 06:39:08;;;;;;;23.15;11.30;;;5.00;86.20;;;;;;4957528;28;20070;-84
2021/01/03 06:41:59;;;;;;;27.25;13.23;;;5.00;86.10;;;;;;4972644;28;20029;-84
2021/01/03 06:44:52;;;;;;;23.92;11.73;;;5.00;86.00;;;;;;4971018;28;20039;-83
2021/01/03 06:47:58;;;;;;;33.45;15.63;;;5.00;86.00;;;;;;4955589;28;20031;-84
2021/01/03 06:51:08;;;;;;;24.42;12.82;;;5.00;86.00;;;;;;4957899;28;20020;-83
2021/01/03 06:54:02;;;;;;;21.20;10.85;;;4.90;86.00;;;;;;4969856;28;20027;-84
2021/01/03 06:56:53;;;;;;;24.13;12.20;;;5.00;86.10;;;;;;4957714;28;20047;-85
2021/01/03 06:59:56;;;;;;;23.90;11.50;;;5.00;86.00;;;;;;4980659;28;20623;-86
2021/01/03 07:02:23;;;;;;;24.73;12.30;;;5.00;86.00;;;;;;4962860;28;20054;-85
2021/01/03 07:04:49;;;;;;;23.70;13.07;;;5.00;85.90;;;;;;4971032;28;20023;-85
2021/01/03 07:07:26;;;;;;;25.88;13.35;;;4.90;86.00;;;;;;4974340;28;20039;-86
2021/01/03 07:10:05;;;;;;;22.88;11.20;;;4.90;85.90;;;;;;4974593;28;20492;-84
2021/01/03 07:12:36;;;;;;;27.98;14.23;;;5.00;86.00;;;;;;4956266;28;20049;-85
2021/01/03 07:15:09;;;;;;;25.40;12.88;;;4.90;86.00;;;;;;4958494;28;20006;-85
2021/01/03 07:18:23;;;;;;;31.15;15.38;;;4.90;86.00;;;;;;4958047;28;20074;-85
2021/01/03 07:21:04;;;;;;;26.00;13.57;;;4.90;85.90;;;;;;4959012;28;20042;-85
2021/01/03 07:23:32;;;;;;;23.73;13.07;;;4.90;85.90;;;;;;4972717;28;20033;-86
2021/01/03 07:26:04;;;;;;;22.00;12.95;;;4.90;85.90;;;;;;4975660;28;20077;-87
2021/01/03 07:28:32;;;;;;;25.20;13.25;;;4.90;85.80;;;;;;4970929;28;20035;-87
2021/01/03 07:31:00;;;;;;;21.35;11.57;;;4.90;85.80;;;;;;4974263;28;20097;-85
2021/01/03 07:33:39;;;;;;;30.35;16.30;;;4.90;85.80;;;;;;4971922;28;20058;-85
2021/01/03 07:36:34;;;;;;;23.17;12.18;;;4.90;85.70;;;;;;4972269;28;20088;-85
2021/01/03 07:39:06;;;;;;;23.50;12.60;;;4.90;85.80;;;;;;4967352;28;20038;-85
2021/01/03 07:41:32;;;;;;;24.63;12.45;;;5.10;85.80;;;;;;4966137;28;20058;-85
2021/01/03 07:44:08;;;;;;;27.38;13.73;;;4.90;85.50;;;;;;4965792;28;20061;-85
2021/01/03 07:46:53;;;;;;;22.90;12.30;;;4.90;85.60;;;;;;4970442;28;20085;-85
2021/01/03 07:49:35;;;;;;;23.38;13.38;;;4.90;85.60;;;;;;4972003;28;20031;-85
2021/01/03 07:52:26;;;;;;;;;;;;;;;;;;;;;
2021/01/03 07:55:14;;;;;;;20.25;10.95;;;4.90;85.40;;;;;;4965653;28;20039;-85
2021/01/03 07:57:42;;;;;;;21.67;11.40;;;4.90;85.40;;;;;;4954774;28;20043;-85
2021/01/03 08:00:08;;;;;;;23.13;11.10;;;4.90;85.30;;;;;;4972165;28;20026;-90
2021/01/03 08:02:38;;;;;;;19.13;10.35;;;4.90;85.30;;;;;;4974385;28;20030;-90
2021/01/03 08:05:05;;;;;;;22.27;12.43;;;5.00;85.40;;;;;;4969906;28;20062;-85
2021/01/03 08:07:30;;;;;;;21.70;12.13;;;5.00;85.30;;;;;;4981294;28;20054;-86
2021/01/03 08:10:11;;;;;;;23.10;13.23;;;5.00;85.30;;;;;;4979618;28;20050;-87
2021/01/03 08:12:49;;;;;;;25.23;13.48;;;4.90;85.20;;;;;;4967484;28;20038;-86
2021/01/03 08:15:24;;;;;;;17.98;10.73;;;4.90;85.10;;;;;;4962844;28;20027;-85
2021/01/03 08:17:50;;;;;;;22.30;12.18;;;4.90;85.10;;;;;;4969351;28;20035;-85
2021/01/03 08:20:20;;;;;;;22.35;12.57;;;4.80;85.10;;;;;;4971164;28;20034;-86
2021/01/03 08:22:46;;;;;;;23.95;13.88;;;4.90;85.10;;;;;;4969301;28;20051;-85
2021/01/03 08:25:29;;;;;;;21.08;11.48;;;4.90;84.90;;;;;;4972217;28;20534;-85
2021/01/03 08:28:08;;;;;;;21.13;11.68;;;4.80;84.90;;;;;;4968997;28;20027;-85
2021/01/03 08:30:36;;;;;;;22.05;11.88;;;4.90;84.90;;;;;;4970632;28;20073;-84
2021/01/03 08:33:07;;;;;;;24.13;12.82;;;4.80;84.80;;;;;;4973523;28;20030;-85
2021/01/03 08:35:33;;;;;;;22.52;11.68;;;4.80;84.70;;;;;;4967818;28;20160;-85
2021/01/03 08:37:58;;;;;;;15.73;8.98;;;4.80;84.70;;;;;;4976500;28;20031;-85
2021/01/03 08:40:35;;;;;;;25.50;14.82;;;4.80;84.70;;;;;;4967037;28;20060;-85
2021/01/03 08:43:09;;;;;;;24.48;13.60;;;4.80;84.50;;;;;;4969909;28;20545;-85
2021/01/03 08:45:43;;;;;;;21.00;12.48;;;4.80;84.30;;;;;;4969611;28;20116;-84
2021/01/03 08:48:13;;;;;;;19.17;10.75;;;4.80;84.30;;;;;;4971578;28;20491;-85
2021/01/03 08:50:41;;;;;;;20.90;12.60;;;4.80;84.30;;;;;;4970721;28;20461;-83
2021/01/03 08:53:20;;;;;;;18.67;10.35;;;4.80;84.10;;;;;;4968509;28;20109;-86
2021/01/03 08:55:46;;;;;;;21.42;12.80;;;4.80;84.10;;;;;;4969859;28;20177;-84
2021/01/03 08:58:26;;;;;;;18.63;10.40;;;4.80;83.90;;;;;;4972012;28;20026;-85
2021/01/03 09:01:00;;;;;;;19.80;11.70;;;4.90;83.90;;;;;;4965157;28;20025;-85
2021/01/03 09:03:27;;;;;;;15.48;8.80;;;4.90;83.90;;;;;;4968910;28;20034;-86
2021/01/03 09:05:54;;;;;;;18.48;10.75;;;4.80;83.80;;;;;;4971227;28;20033;-86
2021/01/03 09:08:41;;;;;;;21.42;11.93;;;4.90;83.70;;;;;;4954334;28;20038;-89
2021/01/03 09:11:40;;;;;;;;;;;;;;;;;;;;;
2021/01/03 09:14:44;;;;;;;18.52;10.63;;;4.80;83.50;;;;;;4976260;28;20078;-89
2021/01/03 09:17:21;;;;;;;20.33;11.95;;;4.80;83.40;;;;;;4966645;28;20043;-83
2021/01/03 09:20:18;;;;;;;15.38;8.98;;;4.80;83.70;;;;;;4964661;28;20032;-86
2021/01/03 09:23:03;;;;;;;16.55;9.32;;;4.80;83.20;;;;;;4965973;28;20481;-86
2021/01/03 09:25:34;;;;;;;17.98;10.40;;;4.70;82.90;;;;;;4966383;28;20030;-86
2021/01/03 09:29:00;;;;;;;19.38;11.20;;;4.70;82.90;;;;;;4969079;28;20031;-96
2021/01/03 09:39:31;;;;;;;14.95;8.70;;;4.70;82.60;;;;;;4874782;29;20056;-93
2021/01/03 09:42:47;;;;;;;;;;;;;;;;;;;;;
2021/01/03 09:46:04;;;;;;;14.05;8.52;;;4.70;82.30;;;;;;4920253;28;20040;-96
2021/01/03 09:48:35;;;;;;;14.75;8.07;;;4.70;82.10;;;;;;4982326;28;20035;-95
2021/01/03 09:51:51;;;;;;;12.95;7.78;;;4.70;81.90;;;;;;4985577;28;20027;-96
2021/01/03 09:54:36;;;;;;;14.13;8.45;;;4.70;81.70;;;;;;4951726;28;20043;-96
2021/01/03 09:57:29;;;;;;;11.77;6.80;;;4.60;81.30;;;;;;4995324;28;20031;-96
2021/01/03 10:00:38;;;;;;;11.68;7.25;;;4.70;81.50;;;;;;4991484;28;20039;-96
2021/01/03 10:03:27;;;;;;;12.20;7.07;;;4.70;81.20;;;;;;4991781;28;20081;-96
2021/01/03 10:05:53;;;;;;;12.10;6.93;;;4.80;81.20;;;;;;4980734;28;20039;-93
2021/01/03 10:08:27;;;;;;;10.63;6.40;;;4.70;81.00;;;;;;4986011;28;20030;-88
2021/01/03 10:11:05;;;;;;;12.32;7.20;;;4.80;80.90;;;;;;4994261;28;20094;-93
2021/01/03 10:13:31;;;;;;;12.25;7.68;;;4.70;80.90;;;;;;4991504;28;20031;-93
2021/01/03 10:15:58;;;;;;;12.57;7.78;;;4.80;80.70;;;;;;4992212;28;20041;-91
2021/01/03 10:18:38;;;;;;;8.15;5.05;;;4.70;80.60;;;;;;4985260;28;20030;-91
2021/01/03 10:21:36;;;;;;;11.48;7.18;;;4.80;80.70;;;;;;4989331;28;20026;-89
2021/01/03 10:24:11;;;;;;;8.05;5.30;;;4.80;80.50;;;;;;4993500;28;20114;-92
2021/01/03 10:26:37;;;;;;;11.32;6.32;;;4.90;80.50;;;;;;4996394;28;20027;-93
2021/01/03 10:29:04;;;;;;;9.25;5.85;;;5.00;81.00;;;;;;4986441;28;20027;-93
2021/01/03 10:31:41;;;;;;;9.43;6.35;;;4.90;80.20;;;;;;4994700;28;20026;-93
2021/01/03 10:34:09;;;;;;;12.90;7.57;;;4.90;80.30;;;;;;4988408;28;20030;-93
2021/01/03 10:36:38;;;;;;;12.20;7.88;;;4.90;80.00;;;;;;4999818;28;20010;-93
2021/01/03 10:39:07;;;;;;;10.27;5.97;;;5.00;80.00;;;;;;5015458;28;20467;-92
2021/01/03 10:41:34;;;;;;;11.80;7.72;;;4.90;79.80;;;;;;5000963;28;20027;-93
2021/01/03 10:44:00;;;;;;;11.82;7.63;;;4.80;79.40;;;;;;4993699;28;20085;-94
2021/01/03 10:46:26;;;;;;;11.25;6.75;;;4.90;79.10;;;;;;5010192;28;20022;-93
2021/01/03 10:48:51;;;;;;;13.10;7.75;;;4.80;79.20;;;;;;5004667;28;20026;-93
2021/01/03 10:51:17;;;;;;;8.80;5.30;;;4.90;79.00;;;;;;5002937;28;20034;-93
2021/01/03 10:53:44;;;;;;;10.23;5.85;;;4.90;79.10;;;;;;4999114;28;20041;-92
2021/01/03 10:56:10;;;;;;;9.30;6.00;;;4.90;79.10;;;;;;5006647;28;20058;-93
2021/01/03 10:58:39;;;;;;;8.10;5.20;;;5.00;79.10;;;;;;4992310;28;20031;-94
2021/01/03 11:01:05;;;;;;;11.80;6.88;;;5.00;78.90;;;;;;4998151;28;20071;-93
2021/01/03 11:03:31;;;;;;;10.40;6.60;;;4.90;78.20;;;;;;4998434;28;20136;-94
2021/01/03 11:05:57;;;;;;;8.18;5.20;;;4.90;78.30;;;;;;5000998;28;20240;-92
2021/01/03 11:08:22;;;;;;;10.05;6.55;;;5.00;78.50;;;;;;4985409;28;20034;-93
2021/01/03 11:10:55;;;;;;;9.02;5.63;;;4.90;78.20;;;;;;4990024;28;20023;-93
2021/01/03 11:13:30;;;;;;;9.38;5.95;;;4.90;78.30;;;;;;4994124;28;20026;-92
2021/01/03 11:15:56;;;;;;;8.75;5.38;;;5.00;78.30;;;;;;5000763;28;20038;-93
2021/01/03 11:18:22;;;;;;;8.52;5.53;;;5.00;78.20;;;;;;4989747;28;20107;-93
2021/01/03 11:20:48;;;;;;;10.15;6.22;;;5.00;78.20;;;;;;4994405;28;20022;-93
2021/01/03 11:23:13;;;;;;;8.80;5.75;;;4.90;77.80;;;;;;4996087;28;20122;-93
2021/01/03 11:25:39;;;;;;;10.20;6.30;;;4.90;77.90;;;;;;5013727;28;20010;-93
2021/01/03 11:28:07;;;;;;;12.32;7.88;;;5.00;77.70;;;;;;5007612;28;20014;-94
2021/01/03 11:30:34;;;;;;;9.65;6.28;;;4.90;77.10;;;;;;5003269;28;20010;-93
2021/01/03 11:32:59;;;;;;;9.57;5.60;;;4.90;77.40;;;;;;5010236;28;20018;-94
2021/01/03 11:35:25;;;;;;;7.93;4.85;;;4.90;77.40;;;;;;5016466;28;20028;-93
2021/01/03 11:37:50;;;;;;;7.85;5.15;;;4.90;77.50;;;;;;5018341;28;20033;-93
2021/01/03 11:40:17;;;;;;;8.68;5.20;;;4.90;77.40;;;;;;5012347;28;20007;-93
2021/01/03 11:42:45;;;;;;;5.38;3.75;;;4.90;77.50;;;;;;5004569;28;20042;-92
2021/01/03 11:45:23;;;;;;;9.40;5.80;;;5.00;77.70;;;;;;4997794;28;20030;-93
2021/01/03 11:47:49;;;;;;;7.57;5.13;;;5.00;77.40;;;;;;4985311;28;20022;-92
2021/01/03 11:50:18;;;;;;;8.60;5.55;;;5.10;77.50;;;;;;4988440;28;20476;-92
2021/01/03 11:52:44;;;;;;;10.02;5.78;;;5.00;77.30;;;;;;4999375;28;20064;-93
2021/01/03 11:55:48;;;;;;;9.18;5.82;;;4.90;77.20;;;;;;4995598;28;20040;-93
2021/01/03 11:58:48;;;;;;;8.90;5.60;;;4.90;77.10;;;;;;4989489;28;20045;-94
2021/01/03 12:02:34;;;;;;;8.75;5.75;;;4.90;77.30;;;;;;4997437;28;20045;-96
2021/01/03 12:05:24;;;;;;;8.95;5.53;;;4.90;77.20;;;;;;4945616;28;20546;-94
2021/01/03 12:08:13;;;;;;;11.77;7.45;;;5.00;78.00;;;;;;4967493;28;20034;-95
2021/01/03 12:10:58;;;;;;;;;;;;;;;;;;;;;
2021/01/03 12:13:40;;;;;;;;;;;;;;;;;;;;;
2021/01/03 12:16:18;;;;;;;12.73;7.55;;;5.00;77.30;;;;;;4993186;28;20039;-94
2021/01/03 12:18:51;;;;;;;16.35;9.98;;;4.90;77.20;;;;;;4989567;28;20105;-94
2021/01/03 12:21:37;;;;;;;12.38;7.60;;;4.90;77.20;;;;;;4988385;28;20158;-95
2021/01/03 12:24:03;;;;;;;11.30;6.45;;;4.90;77.30;;;;;;4988630;28;20146;-95
2021/01/03 12:27:05;;;;;;;13.30;8.23;;;5.00;77.50;;;;;;4991986;28;20465;-94
2021/01/03 12:29:30;;;;;;;10.00;6.38;;;5.00;77.30;;;;;;4992163;28;20094;-95
2021/01/03 12:31:59;;;;;;;13.95;8.55;;;5.00;77.60;;;;;;5003235;28;20121;-96
2021/01/03 12:34:31;;;;;;;17.23;10.38;;;5.00;77.60;;;;;;4995843;28;20100;-95
2021/01/03 12:37:11;;;;;;;17.35;10.55;;;5.00;77.60;;;;;;4995128;28;20066;-92
2021/01/03 12:39:57;;;;;;;14.68;8.82;;;5.00;77.70;;;;;;4999543;28;20126;-93
2021/01/03 12:42:23;;;;;;;14.02;9.10;;;5.00;77.90;;;;;;4996420;28;20062;-94
2021/01/03 12:44:50;;;;;;;14.50;8.38;;;5.00;78.00;;;;;;4988821;28;20027;-95
2021/01/03 12:47:17;;;;;;;14.70;8.35;;;5.00;78.10;;;;;;4991776;28;20050;-95
2021/01/03 12:49:43;;;;;;;13.48;7.85;;;5.10;78.20;;;;;;4990235;28;20030;-93
2021/01/03 12:52:11;;;;;;;12.10;7.88;;;5.10;78.20;;;;;;4991479;28;20037;-95
2021/01/03 12:54:37;;;;;;;13.75;8.55;;;5.30;78.20;;;;;;4988680;28;20026;-95
2021/01/03 12:57:27;;;;;;;15.57;10.00;;;5.60;77.80;;;;;;4989968;28;20388;-94
2021/01/03 12:59:49;;;;;;;14.57;9.27;;;5.80;77.10;;;;;;5001621;28;20034;-95
2021/01/03 13:02:15;;;;;;;16.05;8.98;;;5.80;76.80;;;;;;4998142;28;20046;-95
2021/01/03 13:04:41;;;;;;;18.48;10.35;;;6.00;76.70;;;;;;4988827;28;20412;-93
2021/01/03 13:07:09;;;;;;;17.40;10.73;;;6.00;76.20;;;;;;4984884;28;20019;-92
2021/01/03 13:09:35;;;;;;;13.98;8.18;;;5.70;75.30;;;;;;4981295;28;20023;-92
2021/01/03 13:12:01;;;;;;;10.90;7.03;;;5.70;76.30;;;;;;4985969;28;20037;-93
2021/01/03 13:14:27;;;;;;;14.93;9.60;;;5.70;76.70;;;;;;4979479;28;20047;-93
2021/01/03 13:16:53;;;;;;;15.48;9.52;;;5.60;76.50;;;;;;4981841;28;20351;-94
2021/01/03 13:19:18;;;;;;;22.05;13.07;;;5.60;76.50;;;;;;4989039;28;20133;-92
2021/01/03 13:21:46;;;;;;;17.13;10.65;;;5.30;75.90;;;;;;4990686;28;20093;-94
2021/01/03 13:24:12;;;;;;;17.63;10.68;;;5.30;76.30;;;;;;4991425;28;20109;-94
2021/01/03 13:26:38;;;;;;;15.73;9.55;;;5.30;76.60;;;;;;4990503;28;20058;-93
2021/01/03 13:29:04;;;;;;;15.13;8.98;;;5.30;76.50;;;;;;4987093;28;20031;-92
2021/01/03 13:31:30;;;;;;;16.77;9.85;;;5.30;76.70;;;;;;4989718;28;20045;-92